createdAt,value
2018-01-28T00:00:35.127Z,16.20
2018-01-28T00:03:03.291Z,19.42
2018-01-28T00:05:31.405Z,16.40
2018-01-28T00:07:59.523Z,15.25
2018-01-28T00:10:28.412Z,15.23
2018-01-28T00:12:57.295Z,16.15
2018-01-28T00:15:26.203Z,14.85
2018-01-28T00:17:55.149Z,14.45
2018-01-28T00:20:23.992Z,14.98
2018-01-28T00:22:52.863Z,13.75
2018-01-28T00:25:21.763Z,13.52
2018-01-28T00:27:50.681Z,13.43
2018-01-28T00:30:18.845Z,13.30
2018-01-28T00:32:46.963Z,14.87
2018-01-28T00:35:15.077Z,12.37
2018-01-28T00:37:44.003Z,14.82
2018-01-28T00:40:12.187Z,13.40
2018-01-28T00:42:40.290Z,13.23
2018-01-28T00:45:09.163Z,13.23
2018-01-28T00:47:37.299Z,13.60
2018-01-28T00:50:05.435Z,12.55
2018-01-28T00:52:34.327Z,12.00
2018-01-28T00:55:03.199Z,12.93
2018-01-28T00:57:32.121Z,11.68
2018-01-28T01:00:00.243Z,12.27
2018-01-28T01:02:28.355Z,13.02
2018-01-28T01:04:57.247Z,11.75
2018-01-28T01:07:26.243Z,11.73
2018-01-28T01:09:54.386Z,13.62
2018-01-28T01:12:22.493Z,10.88
2018-01-28T01:14:50.602Z,12.93
2018-01-28T01:17:18.734Z,11.57
2018-01-28T01:19:47.627Z,12.00
2018-01-28T01:22:15.796Z,12.88
2018-01-28T01:24:44.682Z,11.68
2018-01-28T01:27:13.558Z,10.38
2018-01-28T01:29:42.450Z,12.65
2018-01-28T01:32:10.595Z,14.32
2018-01-28T01:34:38.698Z,10.80
2018-01-28T01:37:07.582Z,11.93
2018-01-28T01:39:36.494Z,12.57
2018-01-28T01:42:05.370Z,11.75
2018-01-28T01:44:34.256Z,12.52
2018-01-28T01:47:03.256Z,11.95
2018-01-28T01:49:34.948Z,12.25
2018-01-28T01:52:03.206Z,12.70
2018-01-28T01:54:31.382Z,12.37
2018-01-28T01:56:59.554Z,13.05
2018-01-28T01:59:27.684Z,13.30
2018-01-28T02:01:55.822Z,13.43
2018-01-28T02:04:23.926Z,13.40
2018-01-28T02:06:52.035Z,12.43
2018-01-28T02:09:20.190Z,13.80
2018-01-28T02:11:49.072Z,12.70
2018-01-28T02:14:17.965Z,14.23
2018-01-28T02:16:46.866Z,13.68
2018-01-28T02:19:15.748Z,14.10
2018-01-28T02:21:44.642Z,13.95
2018-01-28T02:24:13.526Z,14.18
2018-01-28T02:26:41.634Z,14.90
2018-01-28T02:29:09.766Z,13.15
2018-01-28T02:31:37.884Z,13.18
2018-01-28T02:34:05.990Z,14.20
2018-01-28T02:36:34.156Z,16.30
2018-01-28T02:39:02.276Z,17.27
2018-01-28T02:41:31.358Z,16.95
2018-01-28T02:44:00.232Z,14.95
2018-01-28T02:46:28.336Z,16.42
2018-01-28T02:48:56.478Z,17.35
2018-01-28T02:51:24.599Z,18.65
2018-01-28T02:53:52.716Z,18.85
2018-01-28T02:56:20.848Z,20.37
2018-01-28T02:58:48.950Z,21.35
2018-01-28T03:01:17.896Z,20.20
2018-01-28T03:03:46.015Z,20.35
2018-01-28T03:06:14.120Z,23.02
2018-01-28T03:08:42.303Z,25.27
2018-01-28T03:11:11.195Z,22.67
2018-01-28T03:13:40.078Z,23.95
2018-01-28T03:16:09.014Z,24.80
2018-01-28T03:18:37.181Z,24.65
2018-01-28T03:21:06.064Z,24.87
2018-01-28T03:23:34.207Z,22.55
2018-01-28T03:26:03.082Z,23.08
2018-01-28T03:28:31.971Z,21.85
2018-01-28T03:31:00.872Z,21.60
2018-01-28T03:33:29.747Z,19.17
2018-01-28T03:35:57.855Z,20.80
2018-01-28T03:38:25.987Z,21.40
2018-01-28T03:40:54.115Z,23.15
2018-01-28T03:43:22.251Z,22.70
2018-01-28T03:45:51.131Z,22.73
2018-01-28T03:48:20.011Z,21.80
2018-01-28T03:50:48.911Z,21.35
2018-01-28T03:53:17.815Z,23.42
2018-01-28T03:55:46.719Z,26.10
2018-01-28T03:58:14.891Z,24.77
2018-01-28T04:00:43.782Z,23.23
2018-01-28T04:03:12.675Z,25.95
2018-01-28T04:05:40.784Z,26.00
2018-01-28T04:08:08.898Z,23.62
2018-01-28T04:10:37.787Z,24.50
2018-01-28T04:13:06.676Z,24.85
2018-01-28T04:15:35.590Z,24.92
2018-01-28T04:18:03.701Z,24.12
2018-01-28T04:20:31.822Z,24.73
2018-01-28T04:22:59.978Z,22.30
2018-01-28T04:25:28.862Z,23.67
2018-01-28T04:27:56.975Z,23.62
2018-01-28T04:30:25.104Z,24.33
2018-01-28T04:32:53.232Z,24.30
2018-01-28T04:35:21.385Z,22.40
2018-01-28T04:37:50.259Z,23.25
2018-01-28T04:40:19.166Z,24.17
2018-01-28T04:42:47.546Z,21.95
2018-01-28T04:45:15.655Z,23.05
2018-01-28T04:47:43.770Z,26.33
2018-01-28T04:50:12.662Z,23.00
2018-01-28T04:52:41.555Z,25.42
2018-01-28T04:55:10.443Z,22.42
2018-01-28T04:57:39.330Z,22.65
2018-01-28T05:00:08.213Z,20.67
2018-01-28T05:02:37.106Z,22.85
2018-01-28T05:05:06.028Z,22.83
2018-01-28T05:07:34.886Z,24.42
2018-01-28T05:10:03.766Z,25.42
2018-01-28T05:12:31.886Z,25.50
2018-01-28T05:15:00.056Z,21.95
2018-01-28T05:17:28.154Z,20.23
2018-01-28T05:19:56.282Z,20.77
2018-01-28T05:22:25.186Z,22.87
2018-01-28T05:24:53.310Z,23.40
2018-01-28T05:27:21.422Z,22.27
2018-01-28T05:29:50.322Z,19.55
2018-01-28T05:32:18.486Z,22.17
2018-01-28T05:34:46.667Z,22.70
2018-01-28T05:37:14.832Z,25.88
2018-01-28T05:39:43.821Z,24.52
2018-01-28T05:42:12.786Z,22.42
2018-01-28T05:44:40.888Z,26.08
2018-01-28T05:47:09.773Z,23.80
2018-01-28T05:49:38.668Z,26.17
2018-01-28T05:52:07.551Z,24.55
2018-01-28T05:54:36.424Z,22.27
2018-01-28T05:57:04.539Z,23.48
2018-01-28T05:59:32.698Z,21.15
2018-01-28T06:02:01.575Z,23.65
2018-01-28T06:04:30.467Z,21.45
2018-01-28T06:06:59.345Z,21.45
2018-01-28T06:09:28.962Z,21.33
2018-01-28T06:11:57.857Z,23.60
2018-01-28T06:14:26.761Z,20.77
2018-01-28T06:16:54.884Z,23.33
2018-01-28T06:19:22.984Z,25.83
2018-01-28T06:21:51.930Z,24.17
2018-01-28T06:24:20.058Z,22.35
2018-01-28T06:26:48.941Z,23.65
2018-01-28T06:29:17.825Z,23.38
2018-01-28T06:31:46.741Z,20.62
2018-01-28T06:34:15.663Z,24.87
2018-01-28T06:36:43.807Z,22.27
2018-01-28T06:39:11.907Z,22.92
2018-01-28T06:41:40.049Z,20.23
2018-01-28T06:44:08.195Z,24.10
2018-01-28T06:46:37.093Z,23.00
2018-01-28T06:49:05.783Z,23.48
2018-01-28T06:51:34.783Z,22.45
2018-01-28T06:54:03.895Z,18.58
2018-01-28T06:56:32.091Z,20.45
2018-01-28T06:59:00.207Z,19.08
2018-01-28T07:01:29.131Z,18.10
2018-01-28T07:03:57.271Z,20.40
2018-01-28T07:06:26.157Z,19.35
2018-01-28T07:08:55.043Z,19.45
2018-01-28T07:11:23.173Z,19.92
2018-01-28T07:13:51.303Z,21.30
2018-01-28T07:16:19.499Z,18.05
2018-01-28T07:18:47.615Z,18.92
2018-01-28T07:21:15.731Z,22.17
2018-01-28T07:23:44.677Z,20.37
2018-01-28T07:26:12.908Z,19.48
2018-01-28T07:28:41.025Z,19.35
2018-01-28T07:31:09.139Z,20.65
2018-01-28T07:33:38.051Z,20.20
2018-01-28T07:36:06.159Z,18.67
2018-01-28T07:38:34.281Z,19.80
2018-01-28T07:41:03.174Z,21.00
2018-01-28T07:43:32.077Z,20.60
2018-01-28T07:46:00.195Z,17.87
2018-01-28T07:48:28.347Z,22.67
2018-01-28T07:50:56.691Z,20.30
2018-01-28T07:53:24.831Z,20.35
2018-01-28T07:55:54.455Z,22.80
2018-01-28T07:58:23.343Z,19.42
2018-01-28T08:00:52.251Z,22.60
2018-01-28T08:03:21.187Z,20.15
2018-01-28T08:05:49.363Z,21.70
2018-01-28T08:08:27.387Z,21.60
2018-01-28T08:11:05.439Z,22.95
2018-01-28T08:13:38.554Z,22.08
2018-01-28T08:16:06.672Z,19.98
2018-01-28T08:18:35.558Z,22.62
2018-01-28T08:21:03.687Z,24.50
2018-01-28T08:23:31.821Z,21.42
2018-01-28T08:26:00.702Z,20.15
2018-01-28T08:28:32.438Z,19.80
2018-01-28T08:31:01.403Z,18.42
2018-01-28T08:33:29.526Z,21.35
2018-01-28T08:35:57.706Z,20.95
2018-01-28T08:38:26.588Z,18.17
2018-01-28T08:40:55.602Z,17.58
2018-01-28T08:43:23.858Z,25.00
2018-01-28T08:45:52.744Z,18.55
2018-01-28T08:48:21.695Z,21.10
2018-01-28T08:50:49.848Z,19.45
2018-01-28T08:53:18.198Z,17.45
2018-01-28T08:55:46.374Z,17.92
2018-01-28T08:58:14.498Z,16.77
2018-01-28T09:00:42.660Z,20.92
2018-01-28T09:03:10.830Z,19.20
2018-01-28T09:05:39.022Z,19.35
2018-01-28T09:08:07.122Z,21.37
2018-01-28T09:10:36.006Z,19.37
2018-01-28T09:16:05.832Z,24.10
2018-01-28T09:18:35.474Z,26.50
2018-01-28T09:21:03.622Z,20.33
2018-01-28T09:23:32.536Z,22.00
2018-01-28T09:26:00.668Z,22.10
2018-01-28T09:28:28.796Z,21.40
2018-01-28T09:30:56.916Z,19.10
2018-01-28T09:33:25.128Z,18.08
2018-01-28T09:35:53.298Z,17.77
2018-01-28T09:38:21.479Z,19.27
2018-01-28T09:40:50.522Z,16.77
2018-01-28T09:43:18.642Z,16.52
2018-01-28T09:45:46.824Z,17.83
2018-01-28T09:48:15.078Z,19.27
2018-01-28T09:50:43.968Z,18.45
2018-01-28T09:53:13.011Z,17.90
2018-01-28T09:55:41.870Z,17.62
2018-01-28T09:58:09.990Z,20.58
2018-01-28T10:00:38.212Z,19.87
2018-01-28T10:03:06.378Z,18.45
2018-01-28T10:05:35.316Z,20.23
2018-01-28T10:08:03.437Z,18.12
2018-01-28T10:10:32.328Z,19.58
2018-01-28T10:13:01.265Z,18.67
2018-01-28T10:15:29.454Z,20.27
2018-01-28T10:17:57.576Z,20.33
2018-01-28T10:20:25.752Z,20.95
2018-01-28T10:22:53.918Z,21.40
2018-01-28T10:25:23.029Z,20.70
2018-01-28T10:27:51.207Z,19.62
2018-01-28T10:32:53.887Z,17.73
2018-01-28T10:35:22.016Z,21.48
2018-01-28T10:37:50.135Z,19.62
2018-01-28T10:40:18.347Z,20.08
2018-01-28T10:42:46.469Z,22.02
2018-01-28T10:45:15.407Z,20.02
2018-01-28T10:47:43.523Z,20.33
2018-01-28T10:50:12.423Z,18.55
2018-01-28T10:52:41.383Z,19.10
2018-01-28T10:55:10.305Z,18.33
2018-01-28T10:57:39.253Z,18.75
2018-01-28T11:00:07.371Z,20.25
2018-01-28T11:02:36.275Z,19.02
2018-01-28T11:05:04.451Z,19.45
2018-01-28T11:07:33.491Z,19.05
2018-01-28T11:10:01.695Z,18.12
2018-01-28T11:12:30.613Z,16.70
2018-01-28T11:14:58.771Z,16.37
2018-01-28T11:17:27.697Z,18.23
2018-01-28T11:19:55.877Z,19.10
2018-01-28T11:22:24.010Z,17.92
2018-01-28T11:24:53.011Z,19.08
2018-01-28T11:27:21.190Z,17.83
2018-01-28T11:29:49.299Z,18.95
2018-01-28T11:32:17.545Z,17.87
2018-01-28T11:34:45.911Z,16.25
2018-01-28T11:37:14.039Z,18.77
2018-01-28T11:39:42.162Z,18.55
2018-01-28T11:42:10.341Z,16.67
2018-01-28T11:44:38.467Z,20.37
2018-01-28T11:47:07.395Z,18.20
2018-01-28T11:49:35.659Z,15.35
2018-01-28T11:52:04.534Z,17.33
2018-01-28T11:54:33.450Z,18.00
2018-01-28T11:57:01.570Z,17.95
2018-01-28T11:59:29.702Z,14.15
2018-01-28T12:01:57.929Z,15.30
2018-01-28T12:04:26.098Z,14.13
2018-01-28T12:06:54.227Z,16.90
2018-01-28T12:09:22.352Z,14.73
2018-01-28T12:11:51.278Z,14.80
2018-01-28T12:14:19.450Z,17.48
2018-01-28T12:16:47.604Z,17.45
2018-01-28T12:19:16.493Z,16.08
2018-01-28T12:21:44.626Z,15.50
2018-01-28T12:24:12.766Z,15.82
2018-01-28T12:26:40.908Z,19.40
2018-01-28T12:29:09.122Z,14.10
2018-01-28T12:31:37.286Z,16.25
2018-01-28T12:34:05.374Z,16.37
2018-01-28T12:36:33.514Z,15.82
2018-01-28T12:39:02.398Z,15.90
2018-01-28T12:41:31.312Z,18.15
2018-01-28T12:43:59.444Z,15.63
2018-01-28T12:46:29.140Z,15.43
2018-01-28T12:48:57.252Z,15.57
2018-01-28T12:51:26.134Z,16.73
2018-01-28T12:53:55.080Z,15.30
2018-01-28T12:56:23.320Z,14.63
2018-01-28T12:58:51.496Z,14.82
2018-01-28T13:01:19.628Z,14.65
2018-01-28T13:03:47.851Z,16.10
2018-01-28T13:06:15.984Z,16.90
2018-01-28T13:08:44.880Z,16.37
2018-01-28T13:11:13.768Z,14.38
2018-01-28T13:13:41.915Z,17.10
2018-01-28T13:16:10.073Z,12.30
2018-01-28T13:18:38.192Z,14.38
2018-01-28T13:21:07.091Z,15.10
2018-01-28T13:23:35.972Z,12.20
2018-01-28T13:26:04.930Z,12.45
2018-01-28T13:28:33.047Z,12.45
2018-01-28T13:31:01.948Z,15.60
2018-01-28T13:33:30.086Z,12.77
2018-01-28T13:35:58.417Z,11.77
2018-01-28T13:38:26.581Z,16.45
2018-01-28T13:40:54.750Z,12.77
2018-01-28T13:43:22.927Z,13.93
2018-01-28T13:45:51.087Z,16.77
2018-01-28T13:48:19.975Z,17.80
2018-01-28T13:50:48.866Z,15.07
2018-01-28T13:53:17.883Z,14.13
2018-01-28T13:55:46.002Z,13.73
2018-01-28T13:58:14.121Z,12.88
2018-01-28T14:00:42.287Z,15.70
2018-01-28T14:03:10.447Z,17.48
2018-01-28T14:05:39.455Z,12.77
2018-01-28T14:08:07.579Z,11.90
2018-01-28T14:10:35.699Z,18.12
2018-01-28T14:13:03.827Z,15.93
2018-01-28T14:15:32.015Z,16.15
2018-01-28T14:18:00.147Z,16.25
2018-01-28T14:20:28.291Z,16.90
2018-01-28T14:22:56.471Z,21.23
2018-01-28T14:25:24.655Z,14.50
2018-01-28T14:27:52.771Z,14.93
2018-01-28T14:30:21.984Z,15.15
2018-01-28T14:32:50.174Z,14.17
2018-01-28T14:35:19.111Z,13.23
2018-01-28T14:37:47.239Z,17.80
2018-01-28T14:40:16.127Z,14.80
2018-01-28T14:42:45.135Z,15.23
2018-01-28T14:45:13.307Z,12.57
2018-01-28T14:47:41.463Z,15.40
2018-01-28T14:50:10.349Z,15.10
2018-01-28T14:52:39.237Z,12.40
2018-01-28T14:55:07.358Z,10.70
2018-01-28T14:57:35.566Z,11.43
2018-01-28T15:00:03.755Z,12.90
2018-01-28T15:02:32.671Z,11.40
2018-01-28T15:05:00.811Z,11.63
2018-01-28T15:07:28.967Z,10.77
2018-01-28T15:09:57.071Z,9.57
2018-01-28T15:12:25.954Z,9.30
2018-01-28T15:14:54.879Z,9.25
2018-01-28T15:17:23.779Z,8.70
2018-01-28T15:19:51.930Z,7.97
2018-01-28T15:22:20.047Z,6.43
2018-01-28T15:24:48.220Z,9.65
2018-01-28T15:27:16.355Z,6.05
2018-01-28T15:29:44.527Z,7.00
2018-01-28T15:32:12.638Z,7.50
2018-01-28T15:34:40.759Z,6.45
2018-01-28T15:37:09.662Z,7.45
2018-01-28T15:39:37.835Z,6.87
2018-01-28T15:42:05.954Z,6.97
2018-01-28T15:44:34.126Z,5.43
2018-01-28T15:47:02.498Z,6.12
2018-01-28T15:49:30.591Z,4.70
2018-01-28T15:51:58.758Z,5.97
2018-01-28T15:54:26.903Z,4.43
2018-01-28T15:56:55.046Z,5.65
2018-01-28T15:59:23.229Z,5.18
2018-01-28T16:01:51.350Z,4.62
2018-01-28T16:04:19.582Z,3.60
2018-01-28T16:06:47.730Z,3.92
2018-01-28T16:09:16.606Z,4.50
2018-01-28T16:11:45.514Z,4.10
2018-01-28T16:14:14.522Z,5.30
2018-01-28T16:16:42.650Z,5.07
2018-01-28T16:19:10.764Z,6.12
2018-01-28T16:21:38.936Z,5.00
2018-01-28T16:24:07.806Z,3.87
2018-01-28T16:26:36.698Z,6.07
2018-01-28T16:29:05.584Z,3.83
2018-01-28T16:31:35.202Z,4.35
2018-01-28T16:34:04.210Z,5.65
2018-01-28T16:36:33.138Z,4.40
2018-01-28T16:39:01.376Z,5.30
2018-01-28T16:41:29.490Z,5.07
2018-01-28T16:43:57.608Z,5.18
2018-01-28T16:46:25.827Z,3.45
2018-01-28T16:48:53.966Z,4.50
2018-01-28T16:51:22.850Z,5.12
2018-01-28T16:53:51.759Z,4.72
2018-01-28T16:56:19.906Z,3.72
2018-01-28T16:58:48.778Z,5.75
2018-01-28T17:01:16.953Z,3.40
2018-01-28T17:03:45.088Z,3.72
2018-01-28T17:06:13.334Z,6.20
2018-01-28T17:08:41.506Z,3.90
2018-01-28T17:11:09.652Z,4.03
2018-01-28T17:13:37.746Z,3.17
2018-01-28T17:16:06.673Z,3.37
2018-01-28T17:18:34.789Z,3.53
2018-01-28T17:21:04.406Z,3.78
2018-01-28T17:23:33.342Z,3.55
2018-01-28T17:26:01.536Z,3.40
2018-01-28T17:28:29.668Z,2.87
2018-01-28T17:30:57.788Z,3.25
2018-01-28T17:33:25.906Z,3.40
2018-01-28T17:35:55.010Z,2.78
2018-01-28T17:38:23.274Z,3.28
2018-01-28T17:40:52.161Z,3.83
2018-01-28T17:43:21.035Z,2.78
2018-01-28T17:45:49.941Z,3.10
2018-01-28T17:48:18.843Z,3.53
2018-01-28T17:50:46.967Z,2.80
2018-01-28T17:53:15.195Z,2.87
2018-01-28T17:55:43.319Z,2.67
2018-01-28T17:58:11.495Z,3.20
2018-01-28T18:00:39.611Z,3.03
2018-01-28T18:03:07.714Z,3.87
2018-01-28T18:05:35.892Z,3.25
2018-01-28T18:08:04.055Z,3.20
2018-01-28T18:10:32.171Z,3.53
2018-01-28T18:13:01.051Z,3.40
2018-01-28T18:15:29.218Z,2.80
2018-01-28T18:17:57.371Z,2.60
2018-01-28T18:20:25.504Z,3.00
2018-01-28T18:22:54.389Z,2.58
2018-01-28T18:25:23.507Z,2.67
2018-01-28T18:27:51.881Z,3.03
2018-01-28T18:30:20.278Z,2.58
2018-01-28T18:32:48.456Z,2.92
2018-01-28T18:35:16.548Z,2.80
2018-01-28T18:37:44.687Z,3.00
2018-01-28T18:40:13.597Z,3.10
2018-01-28T18:42:41.947Z,2.65
2018-01-28T18:45:10.067Z,3.45
2018-01-28T18:47:38.254Z,3.10
2018-01-28T18:50:07.893Z,3.08
2018-01-28T18:52:36.799Z,2.90
2018-01-28T18:55:04.925Z,3.53
2018-01-28T18:57:33.067Z,3.20
2018-01-28T19:00:01.307Z,2.92
2018-01-28T19:02:29.418Z,3.30
2018-01-28T19:04:57.534Z,3.30
2018-01-28T19:07:26.474Z,3.30
2018-01-28T19:09:54.662Z,3.20
2018-01-28T19:12:22.778Z,3.50
2018-01-28T19:14:51.673Z,4.28
2018-01-28T19:17:20.679Z,4.37
2018-01-28T19:19:48.790Z,4.07
2018-01-28T19:22:16.924Z,5.70
2018-01-28T19:24:45.088Z,4.35
2018-01-28T19:27:13.324Z,4.90
2018-01-28T19:29:41.452Z,4.90
2018-01-28T19:32:09.618Z,5.20
2018-01-28T19:34:37.740Z,5.75
2018-01-28T19:37:05.872Z,5.25
2018-01-28T19:39:34.065Z,5.87
2018-01-28T19:42:02.155Z,5.20
2018-01-28T19:44:30.275Z,5.50
2018-01-28T19:46:58.412Z,4.80
2018-01-28T19:49:26.524Z,4.28
2018-01-28T19:51:54.638Z,4.30
2018-01-28T19:54:22.866Z,3.85
2018-01-28T19:56:50.986Z,4.90
2018-01-28T19:59:19.136Z,3.45
2018-01-28T20:01:47.247Z,3.45
2018-01-28T20:04:15.357Z,3.87
2018-01-28T20:06:43.498Z,4.20
2018-01-28T20:09:13.124Z,3.22
2018-01-28T20:11:42.005Z,4.07
2018-01-28T20:14:10.135Z,3.50
2018-01-28T20:16:38.270Z,3.37
2018-01-28T20:19:06.545Z,3.78
2018-01-28T20:21:35.418Z,5.35
2018-01-28T20:24:04.298Z,3.58
2018-01-28T20:26:33.951Z,4.18
2018-01-28T20:29:02.078Z,4.03
2018-01-28T20:31:30.192Z,3.17
2018-01-28T20:33:58.355Z,3.70
2018-01-28T20:36:27.263Z,3.45
2018-01-28T20:38:55.380Z,3.72
2018-01-28T20:41:23.494Z,4.10
2018-01-28T20:43:51.695Z,4.40
2018-01-28T20:46:19.795Z,3.70
2018-01-28T20:48:47.962Z,3.60
2018-01-28T20:51:16.135Z,3.90
2018-01-28T20:53:44.254Z,3.83
2018-01-28T20:56:13.127Z,5.53
2018-01-28T20:58:42.283Z,4.53
2018-01-28T21:01:10.420Z,4.37
2018-01-28T21:03:38.531Z,4.40
2018-01-28T21:06:06.672Z,4.25
2018-01-28T21:08:34.839Z,4.80
2018-01-28T21:11:02.947Z,3.75
2018-01-28T21:13:31.080Z,3.55
2018-01-28T21:16:00.074Z,3.78
2018-01-28T21:18:28.975Z,3.85
2018-01-28T21:20:57.123Z,3.22
2018-01-28T21:23:26.000Z,3.83
2018-01-28T21:25:54.115Z,2.90
2018-01-28T21:28:22.243Z,2.62
2018-01-28T21:30:51.871Z,2.15
2018-01-28T21:33:20.781Z,4.15
2018-01-28T21:35:48.955Z,2.78
2018-01-28T21:38:17.215Z,3.97
2018-01-28T21:40:46.097Z,2.40
2018-01-28T21:43:14.987Z,3.47
2018-01-28T21:45:43.887Z,2.92
2018-01-28T21:48:12.819Z,3.03
2018-01-28T21:50:40.946Z,3.05
2018-01-28T21:53:09.823Z,5.20
2018-01-28T21:55:37.975Z,3.17
2018-01-28T21:58:06.095Z,3.35
2018-01-28T22:00:34.211Z,2.97
2018-01-28T22:03:02.461Z,3.42
2018-01-28T22:05:30.607Z,2.78
2018-01-28T22:07:59.543Z,2.60
2018-01-28T22:10:27.655Z,3.80
2018-01-28T22:12:55.773Z,4.32
2018-01-28T22:15:23.963Z,2.97
2018-01-28T22:17:52.103Z,3.55
2018-01-28T22:20:20.229Z,3.20
2018-01-28T22:22:48.346Z,2.87
2018-01-28T22:25:16.603Z,2.65
2018-01-28T22:27:45.519Z,3.12
2018-01-28T22:30:13.692Z,3.20
2018-01-28T22:32:41.823Z,3.72
2018-01-28T22:35:09.943Z,2.67
2018-01-28T22:37:38.106Z,4.28
2018-01-28T22:40:06.348Z,4.43
2018-01-28T22:42:35.997Z,4.82
2018-01-28T22:45:04.116Z,4.50
2018-01-28T22:47:32.257Z,2.15
2018-01-28T22:50:00.381Z,3.62
2018-01-28T22:52:29.294Z,2.90
2018-01-28T22:54:57.444Z,2.08
2018-01-28T22:57:26.329Z,4.32
2018-01-28T22:59:54.534Z,3.20
2018-01-28T23:02:22.709Z,3.30
2018-01-28T23:04:50.820Z,2.78
2018-01-28T23:07:18.986Z,2.33
2018-01-28T23:09:47.118Z,2.92
2018-01-28T23:12:15.994Z,3.22
2018-01-28T23:14:44.876Z,2.67
2018-01-28T23:17:13.998Z,2.40
2018-01-28T23:19:42.176Z,2.75
2018-01-28T23:22:10.288Z,4.62
2018-01-28T23:24:38.406Z,4.37
2018-01-28T23:27:07.298Z,4.00
2018-01-28T23:29:36.186Z,2.62
2018-01-28T23:32:05.072Z,4.40
2018-01-28T23:34:33.184Z,4.25
2018-01-28T23:37:01.366Z,4.07
2018-01-28T23:39:29.472Z,3.10
2018-01-28T23:41:57.579Z,2.50
2018-01-28T23:44:25.954Z,4.80
2018-01-28T23:46:54.085Z,3.60
2018-01-28T23:49:22.218Z,4.07
2018-01-28T23:51:50.376Z,2.95
2018-01-28T23:54:18.549Z,4.53
2018-01-28T23:56:46.940Z,3.37
2018-01-28T23:59:15.077Z,5.93
